createdAt,value
2023-01-23T00:01:59.912Z,50.53
2023-01-23T00:04:26.448Z,51.97
2023-01-23T00:06:53.072Z,48.83
2023-01-23T00:09:19.636Z,51.83
2023-01-23T00:11:46.129Z,49.03
2023-01-23T00:14:12.746Z,55.77
2023-01-23T00:16:39.574Z,52.07
2023-01-23T00:19:06.132Z,56.13
2023-01-23T00:21:32.671Z,53.73
2023-01-23T00:24:00.342Z,48.33
2023-01-23T00:26:28.551Z,49.10
2023-01-23T00:28:55.548Z,52.00
2023-01-23T00:31:24.905Z,60.43
2023-01-23T00:33:58.891Z,47.10
2023-01-23T00:36:27.998Z,57.00
2023-01-23T00:38:55.153Z,54.80
2023-01-23T00:41:21.747Z,54.17
2023-01-23T00:43:48.606Z,56.47
2023-01-23T00:46:21.476Z,49.17
2023-01-23T00:48:48.345Z,52.93
2023-01-23T00:51:14.980Z,55.33
2023-01-23T00:53:42.072Z,53.73
2023-01-23T00:56:08.998Z,56.10
2023-01-23T00:58:35.670Z,50.07
2023-01-23T01:01:02.327Z,47.40
2023-01-23T01:03:28.857Z,48.47
2023-01-23T01:05:55.431Z,46.87
2023-01-23T01:08:21.964Z,48.37
2023-01-23T01:10:48.491Z,45.60
2023-01-23T01:13:17.584Z,51.37
2023-01-23T01:15:44.122Z,55.47
2023-01-23T01:18:10.726Z,43.07
2023-01-23T01:20:40.271Z,44.03
2023-01-23T01:23:07.511Z,49.30
2023-01-23T01:25:34.110Z,50.70
2023-01-23T01:28:00.603Z,49.70
2023-01-23T01:30:27.594Z,48.80
2023-01-23T01:32:54.541Z,51.37
2023-01-23T01:35:21.324Z,47.97
2023-01-23T01:37:47.954Z,51.43
2023-01-23T01:40:17.520Z,48.20
2023-01-23T01:42:45.137Z,44.87
2023-01-23T01:45:30.756Z,50.73
2023-01-23T01:47:57.342Z,53.10
2023-01-23T01:50:24.039Z,46.70
2023-01-23T01:52:50.602Z,56.10
2023-01-23T01:55:17.752Z,44.43
2023-01-23T01:57:45.946Z,51.67
2023-01-23T02:00:17.327Z,53.67
2023-01-23T02:02:51.378Z,52.20
2023-01-23T02:05:33.320Z,48.80
2023-01-23T02:08:03.762Z,49.50
2023-01-23T02:10:30.503Z,54.03
2023-01-23T02:13:17.774Z,48.50
2023-01-23T02:15:45.394Z,44.43
2023-01-23T02:18:12.081Z,51.40
2023-01-23T02:20:38.827Z,49.93
2023-01-23T02:23:06.799Z,46.40
2023-01-23T02:25:45.908Z,49.80
2023-01-23T02:28:16.182Z,45.53
2023-01-23T02:30:46.851Z,45.43
2023-01-23T02:33:19.822Z,46.13
2023-01-23T02:35:46.665Z,58.90
2023-01-23T02:38:14.196Z,58.17
2023-01-23T02:40:42.400Z,42.03
2023-01-23T02:43:13.374Z,46.10
2023-01-23T02:45:45.672Z,56.97
2023-01-23T02:48:14.404Z,58.07
2023-01-23T02:50:41.979Z,55.27
2023-01-23T02:53:08.573Z,53.57
2023-01-23T02:55:37.531Z,50.20
2023-01-23T02:58:22.695Z,51.57
2023-01-23T03:00:49.935Z,50.70
2023-01-23T03:03:16.563Z,47.13
2023-01-23T03:05:43.189Z,45.13
2023-01-23T03:08:10.886Z,52.17
2023-01-23T03:10:37.456Z,48.53
2023-01-23T03:13:07.375Z,50.90
2023-01-23T03:15:35.375Z,59.60
2023-01-23T03:18:02.591Z,50.93
2023-01-23T03:20:30.609Z,47.73
2023-01-23T03:22:57.159Z,45.30
2023-01-23T03:25:23.785Z,43.13
2023-01-23T03:27:50.348Z,51.37
2023-01-23T03:30:17.345Z,55.10
2023-01-23T03:32:44.722Z,70.77
2023-01-23T03:35:16.611Z,57.87
2023-01-23T03:37:44.265Z,51.67
2023-01-23T03:40:37.435Z,51.70
2023-01-23T03:43:05.055Z,46.67
2023-01-23T03:45:33.371Z,44.57
2023-01-23T03:48:00.020Z,45.33
2023-01-23T03:50:27.090Z,47.97
2023-01-23T03:52:53.604Z,48.83
2023-01-23T03:55:20.479Z,48.20
2023-01-23T03:57:47.245Z,60.97
2023-01-23T04:00:18.040Z,60.40
2023-01-23T04:02:52.607Z,52.67
2023-01-23T04:05:20.251Z,51.57
2023-01-23T04:07:46.860Z,56.07
2023-01-23T04:10:14.200Z,55.80
2023-01-23T04:12:44.724Z,61.50
2023-01-23T04:15:11.685Z,51.73
2023-01-23T04:17:41.280Z,54.10
2023-01-23T04:20:09.124Z,50.87
2023-01-23T04:22:35.663Z,56.27
2023-01-23T04:25:02.229Z,63.90
2023-01-23T04:27:29.475Z,60.67
2023-01-23T04:29:56.659Z,60.73
2023-01-23T04:32:23.271Z,50.57
2023-01-23T04:34:49.990Z,53.67
2023-01-23T04:37:16.699Z,52.80
2023-01-23T04:39:43.579Z,56.60
2023-01-23T04:42:10.673Z,49.73
2023-01-23T04:44:55.366Z,52.63
2023-01-23T04:47:27.719Z,52.73
2023-01-23T04:49:55.407Z,55.07
2023-01-23T04:52:22.665Z,62.07
2023-01-23T04:54:56.141Z,60.57
2023-01-23T04:57:22.723Z,61.30
2023-01-23T04:59:54.600Z,53.40
2023-01-23T05:02:22.250Z,49.53
2023-01-23T05:04:49.062Z,62.27
2023-01-23T05:07:16.036Z,51.03
2023-01-23T05:10:01.641Z,65.17
2023-01-23T05:12:28.191Z,64.53
2023-01-23T05:14:55.215Z,48.27
2023-01-23T05:17:22.415Z,50.50
2023-01-23T05:19:52.476Z,55.07
2023-01-23T05:22:19.204Z,64.70
2023-01-23T05:24:45.794Z,48.37
2023-01-23T05:27:12.866Z,47.13
2023-01-23T05:29:42.336Z,50.53
2023-01-23T05:32:14.710Z,45.70
2023-01-23T05:34:45.019Z,50.40
2023-01-23T05:37:26.952Z,48.20
2023-01-23T05:39:58.141Z,44.03
2023-01-23T05:42:27.968Z,43.60
2023-01-23T05:45:13.601Z,51.67
2023-01-23T05:47:42.349Z,54.23
2023-01-23T05:50:13.722Z,44.27
2023-01-23T05:52:40.767Z,45.80
2023-01-23T05:55:07.434Z,50.90
2023-01-23T05:57:35.405Z,49.20
2023-01-23T06:00:12.752Z,42.93
2023-01-23T06:02:42.070Z,47.20
2023-01-23T06:05:41.034Z,53.93
2023-01-23T06:08:15.322Z,48.07
2023-01-23T06:10:42.837Z,55.33
2023-01-23T06:13:10.672Z,47.77
2023-01-23T06:15:37.619Z,46.87
2023-01-23T06:18:10.681Z,55.47
2023-01-23T06:20:37.340Z,47.83
2023-01-23T06:23:04.075Z,52.23
2023-01-23T06:25:30.845Z,60.37
2023-01-23T06:27:59.702Z,54.27
2023-01-23T06:30:28.893Z,62.70
2023-01-23T06:32:56.252Z,63.60
2023-01-23T06:35:30.864Z,68.70
2023-01-23T06:37:57.523Z,62.70
2023-01-23T06:40:24.587Z,62.40
2023-01-23T06:43:11.412Z,67.90
2023-01-23T06:45:37.941Z,65.83
2023-01-23T06:48:04.980Z,70.47
2023-01-23T06:50:31.666Z,64.43
2023-01-23T06:52:58.270Z,63.43
2023-01-23T06:55:24.867Z,74.33
2023-01-23T06:57:51.683Z,70.60
2023-01-23T07:00:18.686Z,64.77
2023-01-23T07:02:45.939Z,68.20
2023-01-23T07:05:13.241Z,73.77
2023-01-23T07:07:44.101Z,79.03
2023-01-23T07:10:10.895Z,82.00
2023-01-23T07:12:38.016Z,73.93
2023-01-23T07:15:04.839Z,90.53
2023-01-23T07:17:38.245Z,88.37
2023-01-23T07:20:05.629Z,101.17
2023-01-23T07:22:39.712Z,104.87
2023-01-23T07:25:06.512Z,74.33
2023-01-23T07:27:33.235Z,71.47
2023-01-23T07:29:59.738Z,94.80
2023-01-23T07:32:26.289Z,80.70
2023-01-23T07:34:53.224Z,81.10
2023-01-23T07:37:19.831Z,76.03
2023-01-23T07:39:46.335Z,67.77
2023-01-23T07:42:12.873Z,82.90
2023-01-23T07:44:41.549Z,79.07
2023-01-23T07:47:08.030Z,77.17
2023-01-23T07:49:34.552Z,68.30
2023-01-23T07:52:01.564Z,82.40
2023-01-23T07:54:28.099Z,75.37
2023-01-23T07:56:54.674Z,67.23
2023-01-23T07:59:21.192Z,72.17
2023-01-23T08:01:49.159Z,109.13
2023-01-23T08:04:15.684Z,82.30
2023-01-23T08:06:42.234Z,77.20
2023-01-23T08:09:08.783Z,80.53
2023-01-23T08:11:35.362Z,73.63
2023-01-23T08:14:02.175Z,78.40
2023-01-23T08:16:29.154Z,72.00
2023-01-23T08:18:55.832Z,80.40
2023-01-23T08:21:22.346Z,77.67
2023-01-23T08:23:48.918Z,70.47
2023-01-23T08:26:16.464Z,73.80
2023-01-23T08:28:43.572Z,89.37
2023-01-23T08:31:11.506Z,84.67
2023-01-23T08:33:38.535Z,79.60
2023-01-23T08:36:05.854Z,84.93
2023-01-23T08:38:32.666Z,96.80
2023-01-23T08:41:00.585Z,81.43
2023-01-23T08:43:27.325Z,74.67
2023-01-23T08:45:54.918Z,78.10
2023-01-23T08:48:22.679Z,88.57
2023-01-23T08:50:49.632Z,74.50
2023-01-23T08:53:16.508Z,73.60
2023-01-23T08:55:43.146Z,79.40
2023-01-23T08:58:13.099Z,71.83
2023-01-23T09:00:40.267Z,78.27
2023-01-23T09:03:08.178Z,76.13
2023-01-23T09:05:35.825Z,74.47
2023-01-23T09:08:02.366Z,76.43
2023-01-23T09:10:28.943Z,72.53
2023-01-23T09:12:55.523Z,76.67
2023-01-23T09:15:24.925Z,73.27
2023-01-23T09:17:51.443Z,73.67
2023-01-23T09:20:18.287Z,70.43
2023-01-23T09:22:45.346Z,72.93
2023-01-23T09:25:12.309Z,67.87
2023-01-23T09:27:38.844Z,69.03
2023-01-23T09:30:05.597Z,68.47
2023-01-23T09:32:32.336Z,64.37
2023-01-23T09:34:58.863Z,67.13
2023-01-23T09:37:25.362Z,66.50
2023-01-23T09:39:51.885Z,75.53
2023-01-23T09:42:20.533Z,70.93
2023-01-23T09:44:55.399Z,70.67
2023-01-23T09:47:28.131Z,67.37
2023-01-23T09:49:58.620Z,69.87
2023-01-23T09:52:31.162Z,69.77
2023-01-23T09:55:15.995Z,69.00
2023-01-23T09:57:54.745Z,64.37
2023-01-23T10:00:24.699Z,63.70
2023-01-23T10:02:53.432Z,67.60
2023-01-23T10:05:23.440Z,62.60
2023-01-23T10:07:55.923Z,62.97
2023-01-23T10:10:44.365Z,74.30
2023-01-23T10:13:16.984Z,74.23
2023-01-23T10:15:58.546Z,71.20
2023-01-23T10:18:43.576Z,73.60
2023-01-23T10:21:19.081Z,71.10
2023-01-23T10:23:45.570Z,81.93
2023-01-23T10:26:18.526Z,74.47
2023-01-23T10:28:46.484Z,72.50
2023-01-23T10:31:23.014Z,67.40
2023-01-23T10:33:54.590Z,66.27
2023-01-23T10:36:24.724Z,75.30
2023-01-23T10:38:57.924Z,81.73
2023-01-23T10:41:24.693Z,69.97
2023-01-23T10:43:52.261Z,78.03
2023-01-23T10:46:23.361Z,72.03
2023-01-23T10:48:52.809Z,75.50
2023-01-23T10:51:25.810Z,75.57
2023-01-23T10:54:13.007Z,70.27
2023-01-23T10:56:58.368Z,79.30
2023-01-23T10:59:37.336Z,70.43
2023-01-23T11:02:04.223Z,66.90
2023-01-23T11:04:35.192Z,147.60
2023-01-23T11:07:04.028Z,80.53
2023-01-23T11:09:31.363Z,66.67
2023-01-23T11:12:02.263Z,69.27
2023-01-23T11:14:29.089Z,80.00
2023-01-23T11:17:03.596Z,72.70
2023-01-23T11:19:31.232Z,67.23
2023-01-23T11:22:02.152Z,74.67
2023-01-23T11:24:39.862Z,76.90
2023-01-23T11:27:13.244Z,88.10
2023-01-23T11:30:03.205Z,85.30
2023-01-23T11:32:33.289Z,80.70
2023-01-23T11:35:08.646Z,83.37
2023-01-23T11:37:37.049Z,69.43
2023-01-23T11:40:07.168Z,83.70
2023-01-23T11:42:35.599Z,87.87
2023-01-23T11:45:02.090Z,76.03
2023-01-23T11:47:44.628Z,76.27
2023-01-23T11:50:11.703Z,77.20
2023-01-23T11:52:40.988Z,75.47
2023-01-23T11:55:10.347Z,80.60
2023-01-23T11:57:55.560Z,72.27
2023-01-23T12:00:28.020Z,83.00
2023-01-23T12:03:06.454Z,79.77
2023-01-23T12:06:09.649Z,70.90
2023-01-23T12:08:51.487Z,68.37
2023-01-23T12:11:20.269Z,76.80
2023-01-23T12:14:09.500Z,69.53
2023-01-23T12:16:48.488Z,69.00
2023-01-23T12:19:14.968Z,70.10
2023-01-23T12:21:41.464Z,66.97
2023-01-23T12:24:30.508Z,70.13
2023-01-23T12:26:59.829Z,65.93
2023-01-23T12:29:29.083Z,60.40
2023-01-23T12:32:07.596Z,64.17
2023-01-23T12:34:37.157Z,63.77
2023-01-23T12:37:22.245Z,73.67
2023-01-23T12:40:23.026Z,64.73
2023-01-23T12:42:49.748Z,62.80
2023-01-23T12:45:21.859Z,65.50
2023-01-23T12:47:51.823Z,70.60
2023-01-23T12:50:38.655Z,70.73
2023-01-23T12:53:12.897Z,69.93
2023-01-23T12:55:43.309Z,78.20
2023-01-23T12:58:14.248Z,72.33
2023-01-23T13:00:55.903Z,72.27
2023-01-23T13:03:46.057Z,68.47
2023-01-23T13:06:32.275Z,76.77
2023-01-23T13:09:17.877Z,77.40
2023-01-23T13:12:03.716Z,70.30
2023-01-23T13:14:34.748Z,68.87
2023-01-23T13:17:32.522Z,69.57
2023-01-23T13:20:46.732Z,69.13
2023-01-23T13:23:20.489Z,67.13
2023-01-23T13:25:47.183Z,63.77
2023-01-23T13:28:44.044Z,69.80
2023-01-23T13:31:26.723Z,67.83
2023-01-23T13:33:58.676Z,55.33
2023-01-23T13:36:31.537Z,57.73
2023-01-23T13:39:13.346Z,58.53
2023-01-23T13:41:39.976Z,59.03
2023-01-23T13:44:35.721Z,66.93
2023-01-23T14:21:41.227Z,83.75
2023-01-23T14:24:24.921Z,75.17
2023-01-23T14:26:52.871Z,85.10
2023-01-23T14:29:21.141Z,85.33
2023-01-23T14:31:47.836Z,84.00
2023-01-23T14:34:18.681Z,74.80
2023-01-23T14:36:46.695Z,69.53
2023-01-23T14:39:25.562Z,76.03
2023-01-23T14:41:53.860Z,82.87
2023-01-23T14:44:22.229Z,71.30
2023-01-23T14:46:56.107Z,60.83
2023-01-23T14:49:41.573Z,70.97
2023-01-23T14:52:20.837Z,73.63
2023-01-23T14:54:53.797Z,69.93
2023-01-23T14:57:22.400Z,70.50
2023-01-23T14:59:49.310Z,75.30
2023-01-23T15:02:28.058Z,66.13
2023-01-23T15:05:06.999Z,79.53
2023-01-23T15:07:34.407Z,64.67
2023-01-23T15:10:00.982Z,66.10
2023-01-23T15:12:27.560Z,65.83
2023-01-23T15:14:54.964Z,62.97
2023-01-23T15:17:21.884Z,73.13
2023-01-23T15:19:55.379Z,73.03
2023-01-23T15:22:25.822Z,61.93
2023-01-23T15:24:52.598Z,58.83
2023-01-23T15:27:32.450Z,70.03
2023-01-23T15:30:17.584Z,87.93
2023-01-23T15:32:44.160Z,68.40
2023-01-23T15:35:16.325Z,68.77
2023-01-23T15:37:46.569Z,64.37
2023-01-23T15:40:17.159Z,64.30
2023-01-23T15:42:59.415Z,78.00
2023-01-23T15:45:25.942Z,67.20
2023-01-23T15:47:52.468Z,66.40
2023-01-23T15:50:18.974Z,69.30
2023-01-23T15:52:46.736Z,62.03
2023-01-23T15:55:13.613Z,58.67
2023-01-23T15:57:41.890Z,55.20
2023-01-23T16:00:26.419Z,59.97
2023-01-23T16:02:56.762Z,57.60
2023-01-23T16:05:28.663Z,59.80
2023-01-23T16:07:55.987Z,58.97
2023-01-23T16:10:34.184Z,58.30
2023-01-23T16:13:02.661Z,60.90
2023-01-23T16:15:33.801Z,58.43
2023-01-23T16:18:02.877Z,60.43
2023-01-23T16:20:31.276Z,61.03
2023-01-23T16:23:01.918Z,61.77
2023-01-23T16:25:43.700Z,65.07
2023-01-23T16:28:12.036Z,55.00
2023-01-23T16:30:38.674Z,59.47
2023-01-23T16:33:05.273Z,59.57
2023-01-23T16:35:32.016Z,64.43
2023-01-23T16:37:58.888Z,66.40
2023-01-23T16:40:26.993Z,55.87
2023-01-23T16:42:53.698Z,64.07
2023-01-23T16:45:24.992Z,64.70
2023-01-23T16:47:51.569Z,59.03
2023-01-23T16:50:31.979Z,73.77
2023-01-23T16:53:05.421Z,59.43
2023-01-23T16:55:36.649Z,59.20
2023-01-23T16:58:04.867Z,60.03
2023-01-23T17:00:35.345Z,67.57
2023-01-23T17:03:03.274Z,68.90
2023-01-23T17:05:29.836Z,68.63
2023-01-23T17:07:56.438Z,65.90
2023-01-23T17:10:26.213Z,63.67
2023-01-23T17:12:56.997Z,68.87
2023-01-23T17:15:24.930Z,60.10
2023-01-23T17:17:52.668Z,68.53
2023-01-23T17:20:19.382Z,192.77
2023-01-23T17:22:46.575Z,76.83
2023-01-23T17:25:14.437Z,65.60
2023-01-23T17:27:45.238Z,77.47
2023-01-23T17:30:16.710Z,63.23
2023-01-23T17:32:45.853Z,91.70
2023-01-23T17:35:27.571Z,62.80
2023-01-23T17:37:54.961Z,62.63
2023-01-23T17:40:21.567Z,65.93
2023-01-23T17:42:48.153Z,66.57
2023-01-23T17:45:15.631Z,65.90
2023-01-23T17:47:43.191Z,71.50
2023-01-23T17:50:20.367Z,60.97
2023-01-23T17:52:47.477Z,63.50
2023-01-23T17:55:15.207Z,59.07
2023-01-23T17:57:41.699Z,58.70
2023-01-23T18:00:10.939Z,62.43
2023-01-23T18:02:37.944Z,59.07
2023-01-23T18:05:05.268Z,62.87
2023-01-23T18:07:34.509Z,64.40
2023-01-23T18:10:06.806Z,65.23
2023-01-23T18:12:52.151Z,62.67
2023-01-23T18:15:21.766Z,63.80
2023-01-23T18:17:54.558Z,63.00
2023-01-23T18:20:22.068Z,67.40
2023-01-23T18:22:48.847Z,59.20
2023-01-23T18:25:16.276Z,65.00
2023-01-23T18:27:43.704Z,71.27
2023-01-23T18:30:28.669Z,66.80
2023-01-23T18:32:55.327Z,64.17
2023-01-23T18:35:27.091Z,64.63
2023-01-23T18:37:56.543Z,70.20
2023-01-23T18:40:32.544Z,67.50
2023-01-23T18:43:18.035Z,69.33
2023-01-23T18:45:44.684Z,73.07
2023-01-23T18:48:25.176Z,61.13
2023-01-23T18:50:58.261Z,109.63
2023-01-23T18:53:38.031Z,68.33
2023-01-23T18:56:04.620Z,66.43
2023-01-23T18:58:46.225Z,63.07
2023-01-23T19:01:22.553Z,61.60
2023-01-23T19:03:49.573Z,62.40
2023-01-23T19:06:18.886Z,71.20
2023-01-23T19:08:45.536Z,63.50
2023-01-23T19:11:19.249Z,71.77
2023-01-23T19:14:01.157Z,80.80
2023-01-23T19:16:32.065Z,70.97
2023-01-23T19:19:14.728Z,67.00
2023-01-23T19:21:42.302Z,67.47
2023-01-23T19:24:11.085Z,70.33
2023-01-23T19:26:39.327Z,69.77
2023-01-23T19:29:20.335Z,75.27
2023-01-23T19:32:02.800Z,67.40
2023-01-23T19:34:31.108Z,70.07
2023-01-23T19:36:57.678Z,71.33
2023-01-23T19:39:24.269Z,63.90
2023-01-23T19:41:50.895Z,61.70
2023-01-23T19:44:18.257Z,70.83
2023-01-23T19:46:46.025Z,71.93
2023-01-23T19:49:13.777Z,75.10
2023-01-23T19:51:40.862Z,62.80
2023-01-23T19:54:12.560Z,70.27
2023-01-23T19:56:39.424Z,70.17
2023-01-23T19:59:06.461Z,68.80
2023-01-23T20:01:46.714Z,76.83
2023-01-23T20:04:17.679Z,63.03
2023-01-23T20:06:45.512Z,75.40
2023-01-23T20:09:14.586Z,77.47
2023-01-23T20:11:41.621Z,71.30
2023-01-23T20:14:08.164Z,76.60
2023-01-23T20:16:34.706Z,71.10
2023-01-23T20:19:01.283Z,74.53
2023-01-23T20:21:27.790Z,73.57
2023-01-23T20:23:54.307Z,70.70
2023-01-23T20:26:21.452Z,71.50
2023-01-23T20:28:48.988Z,71.50
2023-01-23T20:31:15.790Z,76.30
2023-01-23T20:33:42.779Z,79.00
2023-01-23T20:36:11.023Z,70.53
2023-01-23T20:38:38.399Z,67.97
2023-01-23T20:41:06.201Z,70.23
2023-01-23T20:43:33.478Z,74.80
2023-01-23T20:46:00.062Z,69.33
2023-01-23T20:48:26.758Z,62.50
2023-01-23T20:50:54.243Z,66.60
2023-01-23T20:53:29.978Z,61.03
2023-01-23T20:55:59.375Z,69.27
2023-01-23T20:58:45.352Z,66.30
2023-01-23T21:01:11.999Z,60.87
2023-01-23T21:03:40.058Z,67.50
2023-01-23T21:06:06.883Z,66.17
2023-01-23T21:08:34.460Z,63.30
2023-01-23T21:11:08.076Z,64.87
2023-01-23T21:13:35.318Z,63.27
2023-01-23T21:16:03.647Z,65.70
2023-01-23T21:18:30.371Z,71.03
2023-01-23T21:21:01.685Z,68.67
2023-01-23T21:23:28.240Z,62.03
2023-01-23T21:25:57.468Z,69.90
2023-01-23T21:28:23.977Z,61.80
2023-01-23T21:30:50.695Z,58.00
2023-01-23T21:33:17.207Z,61.13
2023-01-23T21:35:47.582Z,60.60
2023-01-23T21:38:14.101Z,60.87
2023-01-23T21:40:40.642Z,60.80
2023-01-23T21:43:07.163Z,61.53
2023-01-23T21:45:33.676Z,61.73
2023-01-23T21:48:00.227Z,60.47
2023-01-23T21:50:27.163Z,64.43
2023-01-23T21:52:53.639Z,64.67
2023-01-23T21:55:20.417Z,64.10
2023-01-23T21:57:47.182Z,58.40
2023-01-23T22:00:32.193Z,64.77
2023-01-23T22:02:58.752Z,64.23
2023-01-23T22:05:25.323Z,58.47
2023-01-23T22:07:51.916Z,55.63
2023-01-23T22:10:18.515Z,56.07
2023-01-23T22:12:45.103Z,54.73
2023-01-23T22:15:11.689Z,51.93
2023-01-23T22:17:38.192Z,53.50
2023-01-23T22:20:06.351Z,48.67
2023-01-23T22:22:32.942Z,59.97
2023-01-23T22:24:59.468Z,54.00
2023-01-23T22:27:26.030Z,57.57
2023-01-23T22:29:52.591Z,54.20
2023-01-23T22:32:19.434Z,62.13
2023-01-23T22:34:46.125Z,64.17
2023-01-23T22:37:12.629Z,59.37
2023-01-23T22:39:39.140Z,55.73
2023-01-23T22:42:05.751Z,59.10
2023-01-23T22:44:32.330Z,67.37
2023-01-23T22:46:58.949Z,57.17
2023-01-23T22:49:25.549Z,60.43
2023-01-23T22:51:52.170Z,61.87
2023-01-23T22:54:18.669Z,53.60
2023-01-23T22:56:45.231Z,62.30
2023-01-23T22:59:11.771Z,58.47
2023-01-23T23:01:38.283Z,53.30
2023-01-23T23:04:05.031Z,64.60
2023-01-23T23:06:31.611Z,64.80
2023-01-23T23:08:58.133Z,60.63
2023-01-23T23:11:26.148Z,57.90
2023-01-23T23:13:53.220Z,68.80
2023-01-23T23:16:22.039Z,57.57
2023-01-23T23:18:50.357Z,61.80
2023-01-23T23:21:17.807Z,60.83
2023-01-23T23:23:44.408Z,60.40
2023-01-23T23:26:11.170Z,65.83
2023-01-23T23:28:38.126Z,59.27
2023-01-23T23:31:05.003Z,60.80
2023-01-23T23:33:31.587Z,68.70
2023-01-23T23:35:58.153Z,62.37
2023-01-23T23:38:24.677Z,58.87
2023-01-23T23:40:58.286Z,64.60
2023-01-23T23:43:25.185Z,69.43
2023-01-23T23:45:58.856Z,68.20
2023-01-23T23:48:26.100Z,65.53
2023-01-23T23:50:53.435Z,64.50
2023-01-23T23:53:20.319Z,68.30
2023-01-23T23:55:46.957Z,73.17
2023-01-23T23:58:15.209Z,71.27
